N720CC KTEB-KHXD
Flight info
| Callsign | N720CC |
|---|---|
| Flight time | 1h 26m |
| Altitude | 38000 |
| Route | ELVAE COL WHITE Q409 SESUE SOOOP |
| Aircraft | C750/M-SBDE3FGHRWXY/S |
Departure
| Time | 2026-05-05 18:32 |
|---|---|
| Airport | Teterboro Airport (KTEB) |
Arrival
| Time | 2026-05-05 19:59 |
|---|---|
| Airport | Hilton Head Airport (KHXD) |
| Time | Latitude | Longitude | Altitude | Speed | Heading |
|---|---|---|---|---|---|
| 2026-05-05 18:20 | 40.85336 | -74.06366 | 11 ft | 0 kts | 47° |
| 2026-05-05 18:27 | 40.85337 | -74.06363 | 12 ft | 1 kts | 64° |
| 2026-05-05 18:27 | 40.85345 | -74.06338 | 12 ft | 5 kts | 57° |
| 2026-05-05 18:28 | 40.85350 | -74.06251 | 13 ft | 13 kts | 54° |
| 2026-05-05 18:28 | 40.85422 | -74.06147 | 12 ft | 16 kts | 47° |
| 2026-05-05 18:28 | 40.85488 | -74.06064 | 13 ft | 10 kts | 16° |
| 2026-05-05 18:29 | 40.85551 | -74.06058 | 14 ft | 8 kts | 3° |
| 2026-05-05 18:29 | 40.85608 | -74.06054 | 14 ft | 10 kts | 2° |
| 2026-05-05 18:29 | 40.85707 | -74.06049 | 11 ft | 16 kts | 2° |
| 2026-05-05 18:29 | 40.85785 | -74.06016 | 11 ft | 8 kts | 64° |
| 2026-05-05 18:30 | 40.85782 | -74.05962 | 12 ft | 7 kts | 95° |
| 2026-05-05 18:30 | 40.85780 | -74.05879 | 14 ft | 11 kts | 91° |
| 2026-05-05 18:30 | 40.85783 | -74.05763 | 19 ft | 14 kts | 79° |
| 2026-05-05 18:30 | 40.85803 | -74.05622 | 17 ft | 16 kts | 79° |
| 2026-05-05 18:31 | 40.85818 | -74.05507 | 17 ft | 0 kts | 81° |
| 2026-05-05 18:31 | 40.85819 | -74.05489 | 17 ft | 6 kts | 88° |
| 2026-05-05 18:31 | 40.85784 | -74.05436 | 17 ft | 10 kts | 137° |
| 2026-05-05 18:32 | 40.85752 | -74.05442 | 16 ft | 4 kts | 229° |
| 2026-05-05 18:32 | 40.85643 | -74.05603 | 19 ft | 71 kts | 227° |
| 2026-05-05 18:32 | 40.85117 | -74.06370 | 187 ft | 130 kts | 223° |
| 2026-05-05 18:32 | 40.84442 | -74.07315 | 712 ft | 151 kts | 222° |
| 2026-05-05 18:33 | 40.83669 | -74.08386 | 1140 ft | 173 kts | 224° |
| 2026-05-05 18:33 | 40.82819 | -74.09713 | 1295 ft | 210 kts | 237° |
| 2026-05-05 18:33 | 40.82432 | -74.11734 | 1350 ft | 236 kts | 257° |
| 2026-05-05 18:33 | 40.81584 | -74.13611 | 1756 ft | 246 kts | 216° |
| 2026-05-05 18:34 | 40.80043 | -74.14267 | 3273 ft | 229 kts | 192° |
| 2026-05-05 18:34 | 40.78450 | -74.14678 | 4239 ft | 240 kts | 197° |
| 2026-05-05 18:34 | 40.76866 | -74.15418 | 5233 ft | 243 kts | 205° |
| 2026-05-05 18:34 | 40.75303 | -74.16347 | 6192 ft | 249 kts | 207° |
| 2026-05-05 18:35 | 40.73786 | -74.17212 | 7099 ft | 253 kts | 206° |
| 2026-05-05 18:35 | 40.72137 | -74.18097 | 8112 ft | 258 kts | 206° |
| 2026-05-05 18:35 | 40.70462 | -74.19003 | 9149 ft | 263 kts | 207° |
| 2026-05-05 18:35 | 40.68778 | -74.19927 | 10051 ft | 268 kts | 208° |
| 2026-05-05 18:36 | 40.66980 | -74.20919 | 10379 ft | 293 kts | 208° |
| 2026-05-05 18:36 | 40.65009 | -74.22002 | 10510 ft | 321 kts | 207° |
| 2026-05-05 18:36 | 40.62891 | -74.23145 | 10993 ft | 332 kts | 207° |
| 2026-05-05 18:36 | 40.60753 | -74.24296 | 11797 ft | 334 kts | 207° |
| 2026-05-05 18:37 | 40.58626 | -74.25459 | 12491 ft | 338 kts | 207° |
| 2026-05-05 18:37 | 40.56371 | -74.26466 | 13112 ft | 350 kts | 197° |
| 2026-05-05 18:37 | 40.54750 | -74.26695 | 13579 ft | 358 kts | 188° |
| 2026-05-05 18:37 | 40.52229 | -74.26346 | 14227 ft | 372 kts | 172° |
| 2026-05-05 18:38 | 40.49755 | -74.25225 | 14833 ft | 380 kts | 164° |
| 2026-05-05 18:38 | 40.47278 | -74.23969 | 15456 ft | 383 kts | 164° |
| 2026-05-05 18:38 | 40.44769 | -74.22716 | 16081 ft | 387 kts | 164° |
| 2026-05-05 18:38 | 40.42234 | -74.21468 | 16752 ft | 391 kts | 164° |
| 2026-05-05 18:39 | 40.39672 | -74.20198 | 17439 ft | 395 kts | 164° |
| 2026-05-05 18:39 | 40.37091 | -74.18912 | 18140 ft | 399 kts | 163° |
| 2026-05-05 18:39 | 40.34479 | -74.17617 | 18742 ft | 402 kts | 164° |
| 2026-05-05 18:39 | 40.31779 | -74.16668 | 19298 ft | 403 kts | 171° |
| 2026-05-05 18:40 | 40.29010 | -74.16346 | 19737 ft | 399 kts | 192° |
| 2026-05-05 18:40 | 40.26362 | -74.17289 | 20475 ft | 393 kts | 202° |
| 2026-05-05 18:40 | 40.23748 | -74.18412 | 21041 ft | 400 kts | 200° |
| 2026-05-05 18:40 | 40.21014 | -74.19281 | 21639 ft | 407 kts | 195° |
| 2026-05-05 18:41 | 40.18255 | -74.19959 | 22232 ft | 412 kts | 193° |
| 2026-05-05 18:41 | 40.15422 | -74.20640 | 22810 ft | 416 kts | 195° |
| 2026-05-05 18:41 | 40.12594 | -74.21509 | 23393 ft | 419 kts | 198° |
| 2026-05-05 18:41 | 40.09750 | -74.22458 | 23892 ft | 424 kts | 197° |
| 2026-05-05 18:42 | 40.06855 | -74.23320 | 24409 ft | 428 kts | 195° |
| 2026-05-05 18:42 | 40.03938 | -74.24144 | 24896 ft | 430 kts | 197° |
| 2026-05-05 18:42 | 40.01108 | -74.25426 | 25354 ft | 430 kts | 207° |
| 2026-05-05 18:42 | 39.98477 | -74.27272 | 25890 ft | 429 kts | 216° |
| 2026-05-05 18:43 | 39.96059 | -74.29546 | 26379 ft | 430 kts | 220° |
| 2026-05-05 18:43 | 39.93637 | -74.31867 | 26894 ft | 433 kts | 219° |
| 2026-05-05 18:43 | 39.91182 | -74.34180 | 27396 ft | 437 kts | 219° |
| 2026-05-05 18:43 | 39.88713 | -74.36518 | 27908 ft | 440 kts | 219° |
| 2026-05-05 18:44 | 39.86239 | -74.38884 | 28462 ft | 442 kts | 220° |
| 2026-05-05 18:44 | 39.83753 | -74.41254 | 28945 ft | 446 kts | 219° |
| 2026-05-05 18:44 | 39.81310 | -74.43772 | 29332 ft | 448 kts | 226° |
| 2026-05-05 18:44 | 39.79149 | -74.46614 | 29842 ft | 449 kts | 229° |
| 2026-05-05 18:45 | 39.76961 | -74.49527 | 30273 ft | 452 kts | 229° |
| 2026-05-05 18:45 | 39.74739 | -74.52446 | 30672 ft | 455 kts | 229° |
| 2026-05-05 18:45 | 39.72515 | -74.55384 | 31160 ft | 456 kts | 229° |
| 2026-05-05 18:45 | 39.70301 | -74.58329 | 31783 ft | 454 kts | 230° |
| 2026-05-05 18:46 | 39.68093 | -74.61255 | 32348 ft | 454 kts | 230° |
| 2026-05-05 18:46 | 39.65877 | -74.64176 | 32914 ft | 454 kts | 230° |
| 2026-05-05 18:46 | 39.63668 | -74.67088 | 33492 ft | 453 kts | 230° |
| 2026-05-05 18:46 | 39.61457 | -74.70008 | 34074 ft | 453 kts | 230° |
| 2026-05-05 18:47 | 39.59251 | -74.72916 | 34619 ft | 451 kts | 230° |
| 2026-05-05 18:47 | 39.57057 | -74.75803 | 35246 ft | 448 kts | 230° |
| 2026-05-05 18:47 | 39.54877 | -74.78667 | 35883 ft | 444 kts | 230° |
| 2026-05-05 18:47 | 39.52717 | -74.81505 | 36514 ft | 441 kts | 230° |
| 2026-05-05 18:48 | 39.50607 | -74.84277 | 37116 ft | 438 kts | 230° |
| 2026-05-05 18:48 | 39.48474 | -74.87074 | 37737 ft | 435 kts | 229° |
| 2026-05-05 18:48 | 39.46342 | -74.89869 | 37945 ft | 441 kts | 229° |
| 2026-05-05 18:48 | 39.44161 | -74.92729 | 37939 ft | 451 kts | 229° |
| 2026-05-05 18:49 | 39.39648 | -74.98623 | 37961 ft | 470 kts | 229° |
| 2026-05-05 18:49 | 39.34969 | -75.04728 | 37970 ft | 485 kts | 229° |
| 2026-05-05 18:50 | 39.30182 | -75.10946 | 37970 ft | 489 kts | 228° |
| 2026-05-05 18:50 | 39.25117 | -75.16899 | 37956 ft | 493 kts | 225° |
| 2026-05-05 18:51 | 39.20071 | -75.22798 | 37926 ft | 493 kts | 226° |
| 2026-05-05 18:51 | 39.14995 | -75.28733 | 37922 ft | 493 kts | 225° |
| 2026-05-05 18:52 | 39.09903 | -75.34654 | 37909 ft | 493 kts | 226° |
| 2026-05-05 18:52 | 39.04643 | -75.40357 | 37917 ft | 498 kts | 218° |
| 2026-05-05 18:53 | 38.98310 | -75.44144 | 37916 ft | 508 kts | 200° |
| 2026-05-05 18:53 | 38.91274 | -75.45576 | 37945 ft | 514 kts | 189° |
| 2026-05-05 18:54 | 38.84135 | -75.46546 | 37981 ft | 517 kts | 190° |
| 2026-05-05 18:54 | 38.77035 | -75.47539 | 37983 ft | 517 kts | 190° |
| 2026-05-05 18:55 | 38.69881 | -75.48509 | 37979 ft | 517 kts | 190° |
| 2026-05-05 18:55 | 38.62722 | -75.49488 | 37985 ft | 519 kts | 190° |
| 2026-05-05 18:56 | 38.55547 | -75.50457 | 37988 ft | 519 kts | 190° |
| 2026-05-05 18:56 | 38.48369 | -75.51433 | 37996 ft | 519 kts | 190° |
| 2026-05-05 18:57 | 38.41178 | -75.52401 | 38005 ft | 521 kts | 190° |
| 2026-05-05 18:57 | 38.34156 | -75.54219 | 37998 ft | 511 kts | 204° |
| 2026-05-05 18:58 | 38.27976 | -75.58431 | 38005 ft | 499 kts | 220° |
| 2026-05-05 18:58 | 38.22346 | -75.63545 | 38007 ft | 500 kts | 219° |
| 2026-05-05 18:59 | 38.16541 | -75.68450 | 38008 ft | 500 kts | 219° |
| 2026-05-05 18:59 | 38.10832 | -75.73501 | 38011 ft | 500 kts | 219° |
| 2026-05-05 19:00 | 38.05049 | -75.78452 | 37992 ft | 501 kts | 219° |
| 2026-05-05 19:00 | 37.99302 | -75.83456 | 37997 ft | 503 kts | 220° |
| 2026-05-05 19:01 | 37.93514 | -75.88431 | 38008 ft | 502 kts | 219° |
| 2026-05-05 19:01 | 37.87740 | -75.93414 | 38011 ft | 502 kts | 219° |
| 2026-05-05 19:02 | 37.81958 | -75.98380 | 37997 ft | 502 kts | 219° |
| 2026-05-05 19:02 | 37.76163 | -76.03354 | 38004 ft | 504 kts | 219° |
| 2026-05-05 19:03 | 37.70395 | -76.08291 | 37996 ft | 504 kts | 219° |
| 2026-05-05 19:03 | 37.64585 | -76.13258 | 38003 ft | 504 kts | 219° |
| 2026-05-05 19:04 | 37.58763 | -76.18226 | 38008 ft | 507 kts | 219° |
| 2026-05-05 19:04 | 37.52926 | -76.23222 | 38009 ft | 506 kts | 219° |
| 2026-05-05 19:05 | 37.47091 | -76.28197 | 38022 ft | 507 kts | 219° |
| 2026-05-05 19:05 | 37.41251 | -76.33171 | 38020 ft | 507 kts | 219° |
| 2026-05-05 19:06 | 37.35401 | -76.38143 | 38008 ft | 509 kts | 219° |
| 2026-05-05 19:06 | 37.29534 | -76.43117 | 38014 ft | 508 kts | 219° |
| 2026-05-05 19:07 | 37.23663 | -76.48089 | 38027 ft | 509 kts | 219° |
| 2026-05-05 19:07 | 37.17787 | -76.53054 | 38020 ft | 511 kts | 219° |
| 2026-05-05 19:08 | 37.11867 | -76.58046 | 38020 ft | 513 kts | 220° |
| 2026-05-05 19:08 | 37.05944 | -76.63033 | 38032 ft | 512 kts | 220° |
| 2026-05-05 19:09 | 37.00023 | -76.68007 | 38032 ft | 513 kts | 219° |
| 2026-05-05 19:09 | 36.94135 | -76.72944 | 38025 ft | 516 kts | 220° |
| 2026-05-05 19:10 | 36.88161 | -76.77943 | 38048 ft | 516 kts | 220° |
| 2026-05-05 19:10 | 36.82195 | -76.82928 | 38049 ft | 516 kts | 220° |
| 2026-05-05 19:11 | 36.76225 | -76.87906 | 38052 ft | 517 kts | 220° |
| 2026-05-05 19:11 | 36.70206 | -76.92914 | 38052 ft | 521 kts | 220° |
| 2026-05-05 19:12 | 36.64167 | -76.97930 | 38052 ft | 521 kts | 220° |
| 2026-05-05 19:12 | 36.58131 | -77.02934 | 38049 ft | 521 kts | 220° |
| 2026-05-05 19:13 | 36.52092 | -77.07930 | 38041 ft | 521 kts | 220° |
| 2026-05-05 19:13 | 36.46070 | -77.12905 | 38064 ft | 523 kts | 220° |
| 2026-05-05 19:14 | 36.39967 | -77.17933 | 38068 ft | 523 kts | 220° |
| 2026-05-05 19:14 | 36.33946 | -77.22888 | 38047 ft | 523 kts | 220° |
| 2026-05-05 19:15 | 36.28058 | -77.28209 | 38073 ft | 520 kts | 225° |
| 2026-05-05 19:15 | 36.22427 | -77.33744 | 38078 ft | 520 kts | 225° |
| 2026-05-05 19:16 | 36.16723 | -77.39253 | 38077 ft | 520 kts | 225° |
| 2026-05-05 19:16 | 36.11046 | -77.44789 | 38083 ft | 520 kts | 225° |
| 2026-05-05 19:17 | 36.05341 | -77.50298 | 38078 ft | 521 kts | 225° |
| 2026-05-05 19:17 | 35.99637 | -77.55824 | 38080 ft | 521 kts | 225° |
| 2026-05-05 19:18 | 35.93917 | -77.61339 | 38081 ft | 521 kts | 225° |
| 2026-05-05 19:18 | 35.88215 | -77.66834 | 38076 ft | 520 kts | 225° |
| 2026-05-05 19:19 | 35.82500 | -77.72328 | 38070 ft | 521 kts | 225° |
| 2026-05-05 19:19 | 35.76779 | -77.77816 | 38076 ft | 521 kts | 225° |
| 2026-05-05 19:20 | 35.71098 | -77.83258 | 38076 ft | 521 kts | 225° |
| 2026-05-05 19:20 | 35.65378 | -77.88727 | 38074 ft | 521 kts | 225° |
| 2026-05-05 19:21 | 35.59647 | -77.94196 | 38092 ft | 522 kts | 225° |
| 2026-05-05 19:21 | 35.53915 | -77.99654 | 38096 ft | 520 kts | 225° |
| 2026-05-05 19:22 | 35.48187 | -78.05104 | 38098 ft | 521 kts | 225° |
| 2026-05-05 19:22 | 35.43426 | -78.09619 | 38090 ft | 520 kts | 225° |
| 2026-05-05 19:23 | 35.37707 | -78.15040 | 38079 ft | 520 kts | 225° |
| 2026-05-05 19:23 | 35.31050 | -78.21333 | 38078 ft | 520 kts | 225° |
| 2026-05-05 19:24 | 35.25317 | -78.26746 | 38067 ft | 520 kts | 225° |
| 2026-05-05 19:24 | 35.20516 | -78.31270 | 38062 ft | 520 kts | 225° |
| 2026-05-05 19:25 | 35.14776 | -78.36670 | 38090 ft | 521 kts | 224° |
| 2026-05-05 19:25 | 35.09068 | -78.42028 | 38099 ft | 520 kts | 224° |
| 2026-05-05 19:26 | 35.03326 | -78.47411 | 38099 ft | 520 kts | 224° |
| 2026-05-05 19:26 | 34.97577 | -78.52790 | 38092 ft | 520 kts | 224° |
| 2026-05-05 19:27 | 34.91834 | -78.58154 | 38086 ft | 520 kts | 224° |
| 2026-05-05 19:27 | 34.86089 | -78.63510 | 38082 ft | 520 kts | 224° |
| 2026-05-05 19:28 | 34.80405 | -78.68784 | 37928 ft | 493 kts | 225° |
| 2026-05-05 19:28 | 34.77745 | -78.71240 | 37705 ft | 469 kts | 225° |
| 2026-05-05 19:28 | 34.75197 | -78.73620 | 37488 ft | 458 kts | 226° |
| 2026-05-05 19:29 | 34.72665 | -78.76000 | 37269 ft | 461 kts | 226° |
| 2026-05-05 19:29 | 34.70104 | -78.78376 | 37054 ft | 464 kts | 226° |
| 2026-05-05 19:29 | 34.67522 | -78.80748 | 36877 ft | 466 kts | 226° |
| 2026-05-05 19:29 | 34.64937 | -78.83136 | 36699 ft | 466 kts | 226° |
| 2026-05-05 19:30 | 34.62360 | -78.85529 | 36524 ft | 467 kts | 226° |
| 2026-05-05 19:30 | 34.59807 | -78.87894 | 36354 ft | 468 kts | 226° |
| 2026-05-05 19:30 | 34.57209 | -78.90288 | 36182 ft | 469 kts | 226° |
| 2026-05-05 19:30 | 34.54608 | -78.92683 | 36009 ft | 470 kts | 226° |
| 2026-05-05 19:31 | 34.52007 | -78.95084 | 35841 ft | 470 kts | 226° |
| 2026-05-05 19:31 | 34.49394 | -78.97494 | 35666 ft | 471 kts | 226° |
| 2026-05-05 19:31 | 34.46776 | -78.99897 | 35480 ft | 473 kts | 226° |
| 2026-05-05 19:31 | 34.44146 | -79.02303 | 35311 ft | 474 kts | 226° |
| 2026-05-05 19:32 | 34.41464 | -79.04647 | 35142 ft | 477 kts | 225° |
| 2026-05-05 19:32 | 34.38752 | -79.06966 | 34962 ft | 477 kts | 225° |
| 2026-05-05 19:32 | 34.36053 | -79.09279 | 34796 ft | 475 kts | 225° |
| 2026-05-05 19:32 | 34.33354 | -79.11599 | 34636 ft | 476 kts | 225° |
| 2026-05-05 19:33 | 34.30649 | -79.13918 | 34471 ft | 477 kts | 225° |
| 2026-05-05 19:33 | 34.27933 | -79.16235 | 34300 ft | 478 kts | 225° |
| 2026-05-05 19:33 | 34.25263 | -79.18608 | 34110 ft | 473 kts | 229° |
| 2026-05-05 19:33 | 34.22718 | -79.21143 | 33932 ft | 475 kts | 229° |
| 2026-05-05 19:34 | 34.20164 | -79.23682 | 33749 ft | 475 kts | 229° |
| 2026-05-05 19:34 | 34.17595 | -79.26197 | 33564 ft | 475 kts | 229° |
| 2026-05-05 19:34 | 34.15061 | -79.28676 | 33387 ft | 474 kts | 229° |
| 2026-05-05 19:35 | 34.09925 | -79.33746 | 33018 ft | 474 kts | 228° |
| 2026-05-05 19:35 | 34.07359 | -79.36263 | 32839 ft | 474 kts | 228° |
| 2026-05-05 19:35 | 34.04796 | -79.38771 | 32664 ft | 474 kts | 228° |
| 2026-05-05 19:35 | 34.02276 | -79.41244 | 32487 ft | 473 kts | 228° |
| 2026-05-05 19:36 | 33.99723 | -79.43750 | 32274 ft | 473 kts | 228° |
| 2026-05-05 19:36 | 33.97181 | -79.46235 | 32098 ft | 470 kts | 227° |
| 2026-05-05 19:36 | 33.94642 | -79.48719 | 31926 ft | 470 kts | 227° |
| 2026-05-05 19:36 | 33.92102 | -79.51205 | 31754 ft | 470 kts | 227° |
| 2026-05-05 19:37 | 33.89562 | -79.53687 | 31579 ft | 471 kts | 227° |
| 2026-05-05 19:37 | 33.87010 | -79.56152 | 31410 ft | 472 kts | 226° |
| 2026-05-05 19:37 | 33.84178 | -79.58319 | 31203 ft | 481 kts | 219° |
| 2026-05-05 19:37 | 33.81291 | -79.60349 | 31042 ft | 481 kts | 218° |
| 2026-05-05 19:38 | 33.78410 | -79.62400 | 30877 ft | 482 kts | 219° |
| 2026-05-05 19:38 | 33.75585 | -79.64453 | 30700 ft | 481 kts | 219° |
| 2026-05-05 19:38 | 33.72702 | -79.66535 | 30541 ft | 479 kts | 219° |
| 2026-05-05 19:38 | 33.69837 | -79.68574 | 30187 ft | 481 kts | 218° |
| 2026-05-05 19:39 | 33.66983 | -79.70605 | 29516 ft | 472 kts | 218° |
| 2026-05-05 19:39 | 33.64181 | -79.72610 | 28894 ft | 465 kts | 218° |
| 2026-05-05 19:39 | 33.61421 | -79.74593 | 28284 ft | 460 kts | 218° |
| 2026-05-05 19:39 | 33.58690 | -79.76546 | 27682 ft | 455 kts | 218° |
| 2026-05-05 19:40 | 33.55974 | -79.78478 | 27084 ft | 450 kts | 217° |
| 2026-05-05 19:40 | 33.53297 | -79.80386 | 26491 ft | 446 kts | 218° |
| 2026-05-05 19:40 | 33.50678 | -79.82255 | 25910 ft | 442 kts | 218° |
| 2026-05-05 19:40 | 33.48045 | -79.84132 | 25332 ft | 438 kts | 217° |
| 2026-05-05 19:41 | 33.45434 | -79.85990 | 24758 ft | 435 kts | 217° |
| 2026-05-05 19:41 | 33.42841 | -79.87833 | 24189 ft | 431 kts | 217° |
| 2026-05-05 19:41 | 33.40276 | -79.89656 | 23615 ft | 427 kts | 217° |
| 2026-05-05 19:41 | 33.37734 | -79.91461 | 23014 ft | 422 kts | 216° |
| 2026-05-05 19:42 | 33.35220 | -79.93246 | 22462 ft | 418 kts | 216° |
| 2026-05-05 19:42 | 33.32731 | -79.95011 | 21914 ft | 414 kts | 216° |
| 2026-05-05 19:42 | 33.30266 | -79.96759 | 21371 ft | 410 kts | 215° |
| 2026-05-05 19:42 | 33.27823 | -79.98488 | 20828 ft | 405 kts | 215° |
| 2026-05-05 19:43 | 33.25406 | -80.00200 | 20300 ft | 402 kts | 215° |
| 2026-05-05 19:43 | 33.23011 | -80.01894 | 19775 ft | 398 kts | 214° |
| 2026-05-05 19:43 | 33.20638 | -80.03572 | 19249 ft | 394 kts | 214° |
| 2026-05-05 19:43 | 33.18291 | -80.05229 | 18732 ft | 390 kts | 213° |
| 2026-05-05 19:44 | 33.15967 | -80.06870 | 18193 ft | 386 kts | 213° |
| 2026-05-05 19:44 | 33.13667 | -80.08493 | 17637 ft | 383 kts | 213° |
| 2026-05-05 19:44 | 33.11388 | -80.10099 | 17025 ft | 377 kts | 213° |
| 2026-05-05 19:44 | 33.09136 | -80.11686 | 16528 ft | 374 kts | 213° |
| 2026-05-05 19:45 | 33.06904 | -80.13259 | 16020 ft | 372 kts | 213° |
| 2026-05-05 19:45 | 33.04685 | -80.14820 | 15531 ft | 368 kts | 213° |
| 2026-05-05 19:45 | 33.02491 | -80.16363 | 15081 ft | 365 kts | 212° |
| 2026-05-05 19:45 | 33.00309 | -80.17898 | 14601 ft | 362 kts | 212° |
| 2026-05-05 19:46 | 32.98151 | -80.19414 | 14126 ft | 359 kts | 212° |
| 2026-05-05 19:46 | 32.96035 | -80.20900 | 13633 ft | 356 kts | 212° |
| 2026-05-05 19:46 | 32.93913 | -80.22390 | 13157 ft | 352 kts | 212° |
| 2026-05-05 19:46 | 32.91808 | -80.23866 | 12693 ft | 350 kts | 212° |
| 2026-05-05 19:47 | 32.89715 | -80.25334 | 12230 ft | 347 kts | 212° |
| 2026-05-05 19:47 | 32.87646 | -80.26783 | 11774 ft | 343 kts | 211° |
| 2026-05-05 19:47 | 32.85584 | -80.28227 | 11317 ft | 341 kts | 211° |
| 2026-05-05 19:47 | 32.83606 | -80.29610 | 10871 ft | 318 kts | 211° |
| 2026-05-05 19:48 | 32.81764 | -80.30898 | 10464 ft | 297 kts | 211° |
| 2026-05-05 19:48 | 32.80032 | -80.32111 | 10077 ft | 282 kts | 211° |
| 2026-05-05 19:48 | 32.78365 | -80.33276 | 9682 ft | 275 kts | 211° |
| 2026-05-05 19:48 | 32.76719 | -80.34426 | 9330 ft | 275 kts | 211° |
| 2026-05-05 19:49 | 32.75069 | -80.35579 | 8964 ft | 274 kts | 211° |
| 2026-05-05 19:49 | 32.73985 | -80.36335 | 8725 ft | 272 kts | 211° |
| 2026-05-05 19:49 | 32.71820 | -80.37845 | 8244 ft | 269 kts | 211° |
| 2026-05-05 19:49 | 32.70197 | -80.38977 | 7891 ft | 271 kts | 211° |
| 2026-05-05 19:50 | 32.68588 | -80.40099 | 7532 ft | 266 kts | 211° |
| 2026-05-05 19:50 | 32.66996 | -80.41209 | 7185 ft | 266 kts | 211° |
| 2026-05-05 19:50 | 32.65421 | -80.42306 | 6837 ft | 268 kts | 211° |
| 2026-05-05 19:50 | 32.63817 | -80.43422 | 6482 ft | 266 kts | 211° |
| 2026-05-05 19:51 | 32.62236 | -80.44523 | 6116 ft | 261 kts | 211° |
| 2026-05-05 19:51 | 32.60663 | -80.45617 | 5769 ft | 262 kts | 210° |
| 2026-05-05 19:51 | 32.59087 | -80.46713 | 5425 ft | 261 kts | 210° |
| 2026-05-05 19:51 | 32.57532 | -80.47794 | 5084 ft | 257 kts | 209° |
| 2026-05-05 19:52 | 32.55993 | -80.48864 | 4740 ft | 257 kts | 209° |
| 2026-05-05 19:52 | 32.54450 | -80.49935 | 4399 ft | 257 kts | 209° |
| 2026-05-05 19:52 | 32.52917 | -80.51000 | 4061 ft | 254 kts | 208° |
| 2026-05-05 19:52 | 32.51404 | -80.52049 | 3723 ft | 251 kts | 209° |
| 2026-05-05 19:53 | 32.49894 | -80.53097 | 3388 ft | 250 kts | 209° |
| 2026-05-05 19:53 | 32.48394 | -80.54137 | 3058 ft | 251 kts | 208° |
| 2026-05-05 19:53 | 32.46866 | -80.55195 | 2719 ft | 254 kts | 208° |
| 2026-05-05 19:53 | 32.45354 | -80.56244 | 2393 ft | 252 kts | 208° |
| 2026-05-05 19:54 | 32.43842 | -80.57291 | 2052 ft | 252 kts | 208° |
| 2026-05-05 19:54 | 32.42313 | -80.58278 | 1844 ft | 245 kts | 202° |
| 2026-05-05 19:54 | 32.40780 | -80.59138 | 1857 ft | 243 kts | 204° |
| 2026-05-05 19:54 | 32.39259 | -80.60047 | 1870 ft | 248 kts | 204° |
| 2026-05-05 19:55 | 32.37695 | -80.60961 | 1869 ft | 252 kts | 204° |
| 2026-05-05 19:55 | 32.36130 | -80.61859 | 1858 ft | 249 kts | 204° |
| 2026-05-05 19:55 | 32.34565 | -80.62759 | 1879 ft | 248 kts | 204° |
| 2026-05-05 19:55 | 32.33003 | -80.63661 | 1898 ft | 246 kts | 204° |
| 2026-05-05 19:56 | 32.31577 | -80.64488 | 1880 ft | 212 kts | 204° |
| 2026-05-05 19:56 | 32.30322 | -80.65212 | 1674 ft | 188 kts | 203° |
| 2026-05-05 19:56 | 32.29256 | -80.65828 | 1454 ft | 155 kts | 202° |
| 2026-05-05 19:56 | 32.28383 | -80.66332 | 1251 ft | 128 kts | 201° |
| 2026-05-05 19:57 | 32.27631 | -80.66763 | 1084 ft | 114 kts | 201° |
| 2026-05-05 19:57 | 32.27147 | -80.67039 | 970 ft | 115 kts | 200° |
| 2026-05-05 19:57 | 32.26200 | -80.67581 | 769 ft | 115 kts | 204° |
| 2026-05-05 19:57 | 32.25466 | -80.68002 | 613 ft | 118 kts | 204° |
| 2026-05-05 19:58 | 32.24744 | -80.68417 | 425 ft | 115 kts | 202° |
| 2026-05-05 19:58 | 32.24028 | -80.68826 | 265 ft | 114 kts | 204° |
| 2026-05-05 19:58 | 32.23319 | -80.69239 | 124 ft | 113 kts | 202° |
| 2026-05-05 19:58 | 32.22623 | -80.69643 | 27 ft | 106 kts | 203° |
| 2026-05-05 19:59 | 32.22202 | -80.69883 | 20 ft | 41 kts | 206° |
| 2026-05-05 19:59 | 32.21988 | -80.70008 | 18 ft | 28 kts | 206° |
| 2026-05-05 19:59 | 32.21901 | -80.70029 | 18 ft | 8 kts | 123° |
| 2026-05-05 19:59 | 32.21882 | -80.69979 | 19 ft | 5 kts | 106° |
| 2026-05-05 20:00 | 32.21894 | -80.69954 | 21 ft | 5 kts | 27° |
| 2026-05-05 20:00 | 32.21935 | -80.69932 | 19 ft | 7 kts | 34° |
| 2026-05-05 20:00 | 32.21980 | -80.69902 | 18 ft | 8 kts | 29° |
| 2026-05-05 20:00 | 32.22031 | -80.69874 | 18 ft | 9 kts | 25° |
| 2026-05-05 20:01 | 32.22097 | -80.69836 | 17 ft | 11 kts | 26° |
| 2026-05-05 20:01 | 32.22135 | -80.69794 | 21 ft | 5 kts | 112° |
| 2026-05-05 20:01 | 32.22129 | -80.69778 | 19 ft | 0 kts | 111° |